sensor_id;sensor_type;location;lat;lon;timestamp;pressure;altitude;pressure_sealevel;temperature;humidity
28701;BME280;15877;52.344;16.790;2023-05-22T00:00:40;101026.14;;;18.45;55.43
28701;BME280;15877;52.344;16.790;2023-05-22T00:03:26;101029.20;;;18.42;55.46
28701;BME280;15877;52.344;16.790;2023-05-22T00:05:58;101025.64;;;18.37;55.45
28701;BME280;15877;52.344;16.790;2023-05-22T00:08:31;101007.23;;;18.26;55.38
28701;BME280;15877;52.344;16.790;2023-05-22T00:11:03;101018.57;;;18.31;55.47
28701;BME280;15877;52.344;16.790;2023-05-22T00:13:36;101017.27;;;18.23;55.79
28701;BME280;15877;52.344;16.790;2023-05-22T00:16:08;101018.88;;;18.21;55.54
28701;BME280;15877;52.344;16.790;2023-05-22T00:18:41;101017.27;;;18.19;55.85
28701;BME280;15877;52.344;16.790;2023-05-22T00:21:14;101016.00;;;18.16;55.83
28701;BME280;15877;52.344;16.790;2023-05-22T00:23:48;101016.23;;;18.14;55.93
28701;BME280;15877;52.344;16.790;2023-05-22T00:26:21;101018.23;;;18.13;55.66
28701;BME280;15877;52.344;16.790;2023-05-22T00:28:53;101015.91;;;18.09;56.29
28701;BME280;15877;52.344;16.790;2023-05-22T00:31:26;101020.80;;;18.08;56.23
28701;BME280;15877;52.344;16.790;2023-05-22T00:33:58;101020.80;;;18.07;56.43
28701;BME280;15877;52.344;16.790;2023-05-22T00:36:31;101018.31;;;18.05;56.40
28701;BME280;15877;52.344;16.790;2023-05-22T00:39:03;101017.27;;;18.04;56.51
28701;BME280;15877;52.344;16.790;2023-05-22T00:41:36;101017.27;;;18.00;56.38
28701;BME280;15877;52.344;16.790;2023-05-22T00:44:08;101016.93;;;17.97;56.74
28701;BME280;15877;52.344;16.790;2023-05-22T00:46:41;101019.75;;;17.94;56.62
28701;BME280;15877;52.344;16.790;2023-05-22T00:49:14;101013.25;;;17.91;56.85
28701;BME280;15877;52.344;16.790;2023-05-22T00:51:46;101013.08;;;17.87;56.94
28701;BME280;15877;52.344;16.790;2023-05-22T00:54:19;101012.83;;;17.84;56.90
28701;BME280;15877;52.344;16.790;2023-05-22T00:56:52;101016.20;;;17.83;57.12
28701;BME280;15877;52.344;16.790;2023-05-22T00:59:24;101013.94;;;17.79;57.26
28701;BME280;15877;52.344;16.790;2023-05-22T01:01:57;101010.39;;;17.77;57.24
28701;BME280;15877;52.344;16.790;2023-05-22T01:04:31;101009.20;;;17.76;57.41
28701;BME280;15877;52.344;16.790;2023-05-22T01:07:05;101007.02;;;17.73;57.59
28701;BME280;15877;52.344;16.790;2023-05-22T01:09:37;101004.93;;;17.69;57.57
28701;BME280;15877;52.344;16.790;2023-05-22T01:12:20;101002.35;;;17.67;57.48
28701;BME280;15877;52.344;16.790;2023-05-22T01:14:54;100999.70;;;17.63;57.64
28701;BME280;15877;52.344;16.790;2023-05-22T01:17:34;100998.08;;;17.63;57.78
28701;BME280;15877;52.344;16.790;2023-05-22T01:20:17;101001.86;;;17.61;57.84
28701;BME280;15877;52.344;16.790;2023-05-22T01:26:06;100982.05;;;17.41;58.33
28701;BME280;15877;52.344;16.790;2023-05-22T01:28:59;101004.48;;;17.55;58.13
28701;BME280;15877;52.344;16.790;2023-05-22T01:31:38;101004.73;;;17.53;58.01
28701;BME280;15877;52.344;16.790;2023-05-22T01:34:11;101009.63;;;17.53;58.49
28701;BME280;15877;52.344;16.790;2023-05-22T01:36:46;101005.94;;;17.52;58.39
28701;BME280;15877;52.344;16.790;2023-05-22T01:39:21;101007.22;;;17.52;58.82
28701;BME280;15877;52.344;16.790;2023-05-22T01:41:55;101008.34;;;17.51;58.90
28701;BME280;15877;52.344;16.790;2023-05-22T01:44:28;101004.16;;;17.50;58.79
28701;BME280;15877;52.344;16.790;2023-05-22T01:47:00;101005.53;;;17.54;58.69
28701;BME280;15877;52.344;16.790;2023-05-22T01:49:35;101005.14;;;17.53;58.74
28701;BME280;15877;52.344;16.790;2023-05-22T01:52:14;100998.96;;;17.55;58.14
28701;BME280;15877;52.344;16.790;2023-05-22T01:54:52;100998.48;;;17.57;58.99
28701;BME280;15877;52.344;16.790;2023-05-22T01:57:31;100995.83;;;17.54;59.16
28701;BME280;15877;52.344;16.790;2023-05-22T02:00:09;101000.39;;;17.54;58.93
28701;BME280;15877;52.344;16.790;2023-05-22T02:02:50;101000.23;;;17.54;59.03
28701;BME280;15877;52.344;16.790;2023-05-22T02:05:25;100996.30;;;17.53;58.76
28701;BME280;15877;52.344;16.790;2023-05-22T02:08:01;100998.38;;;17.52;59.14
28701;BME280;15877;52.344;16.790;2023-05-22T02:10:35;100999.65;;;17.47;59.33
28701;BME280;15877;52.344;16.790;2023-05-22T02:13:12;100996.05;;;17.49;59.30
28701;BME280;15877;52.344;16.790;2023-05-22T02:15:46;100997.50;;;17.50;59.27
28701;BME280;15877;52.344;16.790;2023-05-22T02:18:19;100999.02;;;17.51;59.24
28701;BME280;15877;52.344;16.790;2023-05-22T02:20:52;100996.30;;;17.51;59.42
28701;BME280;15877;52.344;16.790;2023-05-22T02:23:25;100990.91;;;17.50;59.55
28701;BME280;15877;52.344;16.790;2023-05-22T02:25:59;100991.63;;;17.49;59.57
28701;BME280;15877;52.344;16.790;2023-05-22T02:28:32;100991.55;;;17.48;59.75
28701;BME280;15877;52.344;16.790;2023-05-22T02:31:05;100989.86;;;17.48;59.73
28701;BME280;15877;52.344;16.790;2023-05-22T02:33:38;100989.86;;;17.47;59.77
28701;BME280;15877;52.344;16.790;2023-05-22T02:36:11;100988.25;;;17.46;59.67
28701;BME280;15877;52.344;16.790;2023-05-22T02:38:44;100984.23;;;17.47;59.92
28701;BME280;15877;52.344;16.790;2023-05-22T02:41:16;100983.11;;;17.46;59.64
28701;BME280;15877;52.344;16.790;2023-05-22T02:43:49;100981.00;;;17.45;59.94
28701;BME280;15877;52.344;16.790;2023-05-22T02:46:21;100976.18;;;17.43;59.58
28701;BME280;15877;52.344;16.790;2023-05-22T02:48:53;100972.64;;;17.41;59.56
28701;BME280;15877;52.344;16.790;2023-05-22T02:51:26;100978.23;;;17.40;59.74
28701;BME280;15877;52.344;16.790;2023-05-22T02:53:58;100965.48;;;17.32;59.50
28701;BME280;15877;52.344;16.790;2023-05-22T02:56:31;100974.48;;;17.38;59.29
28701;BME280;15877;52.344;16.790;2023-05-22T02:59:03;100972.88;;;17.36;59.88
28701;BME280;15877;52.344;16.790;2023-05-22T03:01:36;100969.33;;;17.36;60.01
28701;BME280;15877;52.344;16.790;2023-05-22T03:04:09;100968.84;;;17.36;60.23
28701;BME280;15877;52.344;16.790;2023-05-22T03:06:45;100965.00;;;17.35;60.03
28701;BME280;15877;52.344;16.790;2023-05-22T03:09:17;100965.64;;;17.36;60.07
28701;BME280;15877;52.344;16.790;2023-05-22T03:11:50;100964.45;;;17.36;60.06
28701;BME280;15877;52.344;16.790;2023-05-22T03:14:22;100965.08;;;17.35;60.31
28701;BME280;15877;52.344;16.790;2023-05-22T03:16:55;100959.05;;;17.32;59.98
28701;BME280;15877;52.344;16.790;2023-05-22T03:19:29;100963.79;;;17.33;60.00
28701;BME280;15877;52.344;16.790;2023-05-22T03:22:01;100960.73;;;17.32;59.92
28701;BME280;15877;52.344;16.790;2023-05-22T03:24:34;100962.67;;;17.34;59.90
28701;BME280;15877;52.344;16.790;2023-05-22T03:27:07;100959.92;;;17.31;60.02
28701;BME280;15877;52.344;16.790;2023-05-22T03:29:42;100963.21;;;17.30;60.30
28701;BME280;15877;52.344;16.790;2023-05-22T03:32:14;100967.39;;;17.30;60.26
28701;BME280;15877;52.344;16.790;2023-05-22T03:34:47;100971.88;;;17.28;60.11
28701;BME280;15877;52.344;16.790;2023-05-22T03:37:19;100968.19;;;17.28;60.35
28701;BME280;15877;52.344;16.790;2023-05-22T03:39:51;100968.27;;;17.29;60.45
28701;BME280;15877;52.344;16.790;2023-05-22T03:42:28;100970.69;;;17.30;60.14
28701;BME280;15877;52.344;16.790;2023-05-22T03:45:01;100974.85;;;17.30;60.18
28701;BME280;15877;52.344;16.790;2023-05-22T03:47:34;100973.96;;;17.30;60.10
28701;BME280;15877;52.344;16.790;2023-05-22T03:50:07;100975.83;;;17.31;60.19
28701;BME280;15877;52.344;16.790;2023-05-22T03:52:40;100980.98;;;17.36;60.03
28701;BME280;15877;52.344;16.790;2023-05-22T03:55:13;100977.84;;;17.34;60.32
28701;BME280;15877;52.344;16.790;2023-05-22T03:57:46;100965.84;;;17.26;60.45
28701;BME280;15877;52.344;16.790;2023-05-22T04:00:20;100976.08;;;17.36;60.54
28701;BME280;15877;52.344;16.790;2023-05-22T04:02:55;100975.36;;;17.38;60.97
28701;BME280;15877;52.344;16.790;2023-05-22T04:05:29;100974.80;;;17.39;60.75
28701;BME280;15877;52.344;16.790;2023-05-22T04:08:03;100975.86;;;17.42;61.12
28701;BME280;15877;52.344;16.790;2023-05-22T04:10:36;100973.30;;;17.45;60.75
28701;BME280;15877;52.344;16.790;2023-05-22T04:13:09;100971.08;;;17.46;60.86
28701;BME280;15877;52.344;16.790;2023-05-22T04:15:44;100970.91;;;17.48;60.58
28701;BME280;15877;52.344;16.790;2023-05-22T04:18:16;100968.12;;;17.50;60.74
28701;BME280;15877;52.344;16.790;2023-05-22T04:20:49;100965.48;;;17.53;60.63
28701;BME280;15877;52.344;16.790;2023-05-22T04:23:21;100966.45;;;17.55;60.99
28701;BME280;15877;52.344;16.790;2023-05-22T04:25:54;100965.72;;;17.56;61.05
28701;BME280;15877;52.344;16.790;2023-05-22T04:28:26;100967.02;;;17.60;61.30
28701;BME280;15877;52.344;16.790;2023-05-22T04:31:00;100964.77;;;17.66;60.89
28701;BME280;15877;52.344;16.790;2023-05-22T04:33:36;100970.82;;;17.68;61.48
28701;BME280;15877;52.344;16.790;2023-05-22T04:36:10;100970.65;;;17.70;62.09
28701;BME280;15877;52.344;16.790;2023-05-22T04:38:43;100969.29;;;17.73;61.71
28701;BME280;15877;52.344;16.790;2023-05-22T04:41:17;100962.95;;;17.78;61.80
28701;BME280;15877;52.344;16.790;2023-05-22T04:43:54;100968.16;;;17.83;61.66
28701;BME280;15877;52.344;16.790;2023-05-22T04:46:27;100967.05;;;17.86;61.96
28701;BME280;15877;52.344;16.790;2023-05-22T04:48:59;100965.53;;;17.88;61.59
28701;BME280;15877;52.344;16.790;2023-05-22T04:51:33;100968.58;;;17.92;61.97
28701;BME280;15877;52.344;16.790;2023-05-22T04:54:05;100964.89;;;17.94;61.80
28701;BME280;15877;52.344;16.790;2023-05-22T04:56:38;100960.86;;;17.97;61.49
28701;BME280;15877;52.344;16.790;2023-05-22T04:59:10;100956.95;;;18.01;61.13
28701;BME280;15877;52.344;16.790;2023-05-22T05:01:46;100956.46;;;18.03;61.00
28701;BME280;15877;52.344;16.790;2023-05-22T05:04:20;100953.15;;;18.05;60.20
28701;BME280;15877;52.344;16.790;2023-05-22T05:06:53;100955.00;;;18.10;60.24
28701;BME280;15877;52.344;16.790;2023-05-22T05:09:27;100957.91;;;18.12;60.25
28701;BME280;15877;52.344;16.790;2023-05-22T05:12:01;100961.77;;;18.16;60.25
28701;BME280;15877;52.344;16.790;2023-05-22T05:14:33;100966.89;;;18.20;59.87
28701;BME280;15877;52.344;16.790;2023-05-22T05:17:06;100965.11;;;18.21;60.33
28701;BME280;15877;52.344;16.790;2023-05-22T05:19:38;100971.15;;;18.23;60.15
28701;BME280;15877;52.344;16.790;2023-05-22T05:22:11;100969.38;;;18.30;60.02
28701;BME280;15877;52.344;16.790;2023-05-22T05:24:45;100970.59;;;18.34;59.88
28701;BME280;15877;52.344;16.790;2023-05-22T05:27:18;100971.55;;;18.34;60.42
28701;BME280;15877;52.344;16.790;2023-05-22T05:29:51;100974.77;;;18.36;60.47
28701;BME280;15877;52.344;16.790;2023-05-22T05:32:31;100973.00;;;18.43;60.62
28701;BME280;15877;52.344;16.790;2023-05-22T05:35:34;100975.09;;;18.47;60.29
28701;BME280;15877;52.344;16.790;2023-05-22T05:38:11;100973.39;;;18.54;60.46
28701;BME280;15877;52.344;16.790;2023-05-22T05:40:46;100974.92;;;18.57;60.83
28701;BME280;15877;52.344;16.790;2023-05-22T05:43:19;100971.46;;;18.60;61.18
28701;BME280;15877;52.344;16.790;2023-05-22T05:45:53;100977.79;;;18.67;60.88
28701;BME280;15877;52.344;16.790;2023-05-22T05:48:26;100977.39;;;18.70;60.64
28701;BME280;15877;52.344;16.790;2023-05-22T05:50:59;100979.14;;;18.82;60.42
28701;BME280;15877;52.344;16.790;2023-05-22T05:53:35;100979.52;;;18.84;60.21
28701;BME280;15877;52.344;16.790;2023-05-22T05:56:09;100973.96;;;18.86;59.74
28701;BME280;15877;52.344;16.790;2023-05-22T05:58:42;100977.85;;;19.02;59.48
28701;BME280;15877;52.344;16.790;2023-05-22T06:01:34;100960.73;;;18.95;59.72
28701;BME280;15877;52.344;16.790;2023-05-22T06:04:07;100973.94;;;19.13;59.25
28701;BME280;15877;52.344;16.790;2023-05-22T06:06:40;100971.52;;;19.13;59.12
28701;BME280;15877;52.344;16.790;2023-05-22T06:09:28;100972.08;;;19.18;58.84
28701;BME280;15877;52.344;16.790;2023-05-22T06:12:14;100968.96;;;19.27;58.75
28701;BME280;15877;52.344;16.790;2023-05-22T06:14:47;100960.41;;;19.36;58.61
28701;BME280;15877;52.344;16.790;2023-05-22T06:17:20;100960.77;;;19.45;58.93
28701;BME280;15877;52.344;16.790;2023-05-22T06:19:53;100959.73;;;19.43;58.72
28701;BME280;15877;52.344;16.790;2023-05-22T06:22:26;100957.35;;;19.51;58.56
28701;BME280;15877;52.344;16.790;2023-05-22T06:25:02;100960.45;;;19.60;58.12
28701;BME280;15877;52.344;16.790;2023-05-22T06:27:36;100960.15;;;19.68;57.89
28701;BME280;15877;52.344;16.790;2023-05-22T06:30:10;100963.72;;;19.75;57.69
28701;BME280;15877;52.344;16.790;2023-05-22T06:32:44;100963.15;;;19.78;57.54
28701;BME280;15877;52.344;16.790;2023-05-22T06:35:20;100962.58;;;19.87;57.63
28701;BME280;15877;52.344;16.790;2023-05-22T06:37:53;100965.02;;;19.96;57.58
28701;BME280;15877;52.344;16.790;2023-05-22T06:40:26;100965.20;;;20.03;57.71
28701;BME280;15877;52.344;16.790;2023-05-22T06:43:04;100952.88;;;20.01;57.67
28701;BME280;15877;52.344;16.790;2023-05-22T06:45:42;100962.39;;;20.12;57.77
28701;BME280;15877;52.344;16.790;2023-05-22T06:48:34;100965.56;;;20.20;57.96
28701;BME280;15877;52.344;16.790;2023-05-22T06:51:20;100964.74;;;20.31;56.99
28701;BME280;15877;52.344;16.790;2023-05-22T06:53:55;100965.31;;;20.38;56.71
28701;BME280;15877;52.344;16.790;2023-05-22T06:56:31;100963.74;;;20.43;56.64
28701;BME280;15877;52.344;16.790;2023-05-22T06:59:10;100962.77;;;20.52;56.46
28701;BME280;15877;52.344;16.790;2023-05-22T07:02:06;100961.71;;;20.59;55.89
28701;BME280;15877;52.344;16.790;2023-05-22T07:04:52;100964.84;;;20.68;55.60
28701;BME280;15877;52.344;16.790;2023-05-22T07:07:39;100960.80;;;20.77;53.66
28701;BME280;15877;52.344;16.790;2023-05-22T07:10:12;100957.01;;;20.83;53.77
28701;BME280;15877;52.344;16.790;2023-05-22T07:12:45;100952.02;;;20.90;53.10
28701;BME280;15877;52.344;16.790;2023-05-22T07:15:17;100952.99;;;20.97;54.74
28701;BME280;15877;52.344;16.790;2023-05-22T07:17:54;100954.79;;;21.03;54.61
28701;BME280;15877;52.344;16.790;2023-05-22T07:20:26;100956.89;;;21.10;52.94
28701;BME280;15877;52.344;16.790;2023-05-22T07:23:20;100960.61;;;21.22;53.75
28701;BME280;15877;52.344;16.790;2023-05-22T07:25:55;100961.61;;;21.30;53.39
28701;BME280;15877;52.344;16.790;2023-05-22T07:28:31;100962.20;;;21.34;52.74
28701;BME280;15877;52.344;16.790;2023-05-22T07:31:08;100961.34;;;21.45;53.63
28701;BME280;15877;52.344;16.790;2023-05-22T07:33:41;100966.91;;;21.50;52.45
28701;BME280;15877;52.344;16.790;2023-05-22T07:36:14;100966.96;;;21.58;50.15
28701;BME280;15877;52.344;16.790;2023-05-22T07:38:48;100961.96;;;21.63;48.57
28701;BME280;15877;52.344;16.790;2023-05-22T07:41:21;100965.41;;;21.69;48.84
28701;BME280;15877;52.344;16.790;2023-05-22T07:43:54;100964.11;;;21.78;49.94
28701;BME280;15877;52.344;16.790;2023-05-22T07:46:29;100960.34;;;21.92;47.58
28701;BME280;15877;52.344;16.790;2023-05-22T07:49:10;100958.52;;;21.95;48.66
28701;BME280;15877;52.344;16.790;2023-05-22T07:51:43;100957.98;;;21.99;49.17
28701;BME280;15877;52.344;16.790;2023-05-22T07:54:16;100956.90;;;22.09;48.43
28701;BME280;15877;52.344;16.790;2023-05-22T07:56:52;100956.52;;;22.19;49.20
28701;BME280;15877;52.344;16.790;2023-05-22T07:59:24;100956.89;;;22.28;49.68
28701;BME280;15877;52.344;16.790;2023-05-22T08:01:59;100960.86;;;22.33;48.42
28701;BME280;15877;52.344;16.790;2023-05-22T08:04:32;100949.97;;;22.32;48.96
28701;BME280;15877;52.344;16.790;2023-05-22T08:07:05;100963.23;;;22.45;49.42
28701;BME280;15877;52.344;16.790;2023-05-22T08:09:38;100963.11;;;22.52;48.74
28701;BME280;15877;52.344;16.790;2023-05-22T08:12:11;100957.34;;;22.59;48.93
28701;BME280;15877;52.344;16.790;2023-05-22T08:14:44;100953.45;;;22.63;48.91
28701;BME280;15877;52.344;16.790;2023-05-22T08:17:16;100956.27;;;22.68;48.30
28701;BME280;15877;52.344;16.790;2023-05-22T08:19:48;100955.91;;;22.74;47.49
28701;BME280;15877;52.344;16.790;2023-05-22T08:22:21;100950.96;;;22.79;48.78
28701;BME280;15877;52.344;16.790;2023-05-22T08:24:53;100955.02;;;22.87;48.03
28701;BME280;15877;52.344;16.790;2023-05-22T08:27:25;100959.91;;;22.93;48.61
28701;BME280;15877;52.344;16.790;2023-05-22T08:29:58;100953.93;;;22.96;47.90
28701;BME280;15877;52.344;16.790;2023-05-22T08:32:30;100953.63;;;23.03;47.90
28701;BME280;15877;52.344;16.790;2023-05-22T08:35:03;100958.77;;;23.10;47.60
28701;BME280;15877;52.344;16.790;2023-05-22T08:37:35;100949.80;;;23.16;44.32
28701;BME280;15877;52.344;16.790;2023-05-22T08:40:11;100947.09;;;23.17;42.66
28701;BME280;15877;52.344;16.790;2023-05-22T08:42:44;100947.02;;;23.25;42.22
28701;BME280;15877;52.344;16.790;2023-05-22T08:45:18;100943.55;;;23.36;42.61
28701;BME280;15877;52.344;16.790;2023-05-22T08:47:52;100944.25;;;23.41;43.62
28701;BME280;15877;52.344;16.790;2023-05-22T08:50:26;100943.82;;;23.46;44.17
28701;BME280;15877;52.344;16.790;2023-05-22T08:53:00;100938.91;;;23.51;45.37
28701;BME280;15877;52.344;16.790;2023-05-22T08:55:31;100929.61;;;23.46;44.99
28701;BME280;15877;52.344;16.790;2023-05-22T08:58:04;100937.76;;;23.62;44.87
28701;BME280;15877;52.344;16.790;2023-05-22T09:00:37;100934.87;;;23.68;43.88
28701;BME280;15877;52.344;16.790;2023-05-22T09:03:10;100927.30;;;23.76;43.88
28701;BME280;15877;52.344;16.790;2023-05-22T09:05:45;100927.93;;;23.86;44.49
28701;BME280;15877;52.344;16.790;2023-05-22T09:08:17;100926.48;;;23.92;42.22
28701;BME280;15877;52.344;16.790;2023-05-22T09:10:51;100922.64;;;23.94;40.93
28701;BME280;15877;52.344;16.790;2023-05-22T09:13:27;100921.62;;;24.06;42.03
28701;BME280;15877;52.344;16.790;2023-05-22T09:16:06;100917.48;;;24.16;42.51
28701;BME280;15877;52.344;16.790;2023-05-22T09:18:39;100915.25;;;24.24;41.53
28701;BME280;15877;52.344;16.790;2023-05-22T09:21:13;100903.16;;;24.21;42.59
28701;BME280;15877;52.344;16.790;2023-05-22T09:24:01;100913.70;;;24.27;43.06
28701;BME280;15877;52.344;16.790;2023-05-22T09:26:34;100910.59;;;24.34;43.34
28701;BME280;15877;52.344;16.790;2023-05-22T09:29:07;100908.43;;;24.42;43.54
28701;BME280;15877;52.344;16.790;2023-05-22T09:31:43;100908.52;;;24.45;40.05
28701;BME280;15877;52.344;16.790;2023-05-22T09:34:16;100908.79;;;24.38;39.11
28701;BME280;15877;52.344;16.790;2023-05-22T09:36:48;100908.73;;;24.40;38.47
28701;BME280;15877;52.344;16.790;2023-05-22T09:39:21;100910.43;;;24.49;38.87
28701;BME280;15877;52.344;16.790;2023-05-22T09:41:56;100907.28;;;24.60;40.95
28701;BME280;15877;52.344;16.790;2023-05-22T09:44:33;100904.83;;;24.67;41.75
28701;BME280;15877;52.344;16.790;2023-05-22T09:47:06;100902.70;;;24.73;41.41
28701;BME280;15877;52.344;16.790;2023-05-22T09:49:41;100900.35;;;24.79;40.95
28701;BME280;15877;52.344;16.790;2023-05-22T09:52:15;100898.98;;;24.85;40.76
28701;BME280;15877;52.344;16.790;2023-05-22T09:54:48;100897.76;;;24.82;40.44
28701;BME280;15877;52.344;16.790;2023-05-22T09:57:22;100899.56;;;24.72;40.40
28701;BME280;15877;52.344;16.790;2023-05-22T09:59:55;100896.43;;;24.75;39.94
28701;BME280;15877;52.344;16.790;2023-05-22T10:02:30;100896.42;;;24.83;38.66
28701;BME280;15877;52.344;16.790;2023-05-22T10:05:06;100890.00;;;24.86;38.80
28701;BME280;15877;52.344;16.790;2023-05-22T10:07:45;100887.56;;;24.89;39.62
28701;BME280;15877;52.344;16.790;2023-05-22T10:10:21;100881.09;;;25.01;41.60
28701;BME280;15877;52.344;16.790;2023-05-22T10:12:59;100872.58;;;25.01;42.30
28701;BME280;15877;52.344;16.790;2023-05-22T10:15:33;100885.30;;;25.23;41.20
28701;BME280;15877;52.344;16.790;2023-05-22T10:18:06;100881.75;;;25.38;40.71
28701;BME280;15877;52.344;16.790;2023-05-22T10:20:39;100875.16;;;25.49;39.44
28701;BME280;15877;52.344;16.790;2023-05-22T10:23:12;100881.59;;;25.61;40.36
28701;BME280;15877;52.344;16.790;2023-05-22T10:25:46;100876.16;;;25.70;40.41
28701;BME280;15877;52.344;16.790;2023-05-22T10:28:23;100877.08;;;25.84;41.16
28701;BME280;15877;52.344;16.790;2023-05-22T10:31:02;100874.52;;;25.98;40.82
28701;BME280;15877;52.344;16.790;2023-05-22T10:33:55;100874.30;;;26.06;39.06
28701;BME280;15877;52.344;16.790;2023-05-22T10:36:40;100871.42;;;26.15;37.46
28701;BME280;15877;52.344;16.790;2023-05-22T10:39:33;100871.36;;;26.28;37.21
28701;BME280;15877;52.344;16.790;2023-05-22T10:42:13;100858.14;;;26.33;36.54
28701;BME280;15877;52.344;16.790;2023-05-22T10:44:47;100864.96;;;26.51;37.27
28701;BME280;15877;52.344;16.790;2023-05-22T10:47:20;100856.08;;;26.61;35.14
28701;BME280;15877;52.344;16.790;2023-05-22T10:50:03;100845.55;;;26.59;36.55
28701;BME280;15877;52.344;16.790;2023-05-22T10:52:38;100853.18;;;26.58;37.50
28701;BME280;15877;52.344;16.790;2023-05-22T10:55:11;100835.81;;;26.48;37.17
28701;BME280;15877;52.344;16.790;2023-05-22T10:57:44;100843.66;;;26.60;37.71
28701;BME280;15877;52.344;16.790;2023-05-22T11:00:17;100841.05;;;26.54;38.61
28701;BME280;15877;52.344;16.790;2023-05-22T11:03:03;100840.48;;;26.62;38.77
28701;BME280;15877;52.344;16.790;2023-05-22T11:05:53;100840.77;;;26.70;39.55
28701;BME280;15877;52.344;16.790;2023-05-22T11:08:38;100837.35;;;26.61;37.35
28701;BME280;15877;52.344;16.790;2023-05-22T11:11:12;100823.08;;;26.51;36.25
28701;BME280;15877;52.344;16.790;2023-05-22T11:13:51;100834.19;;;26.74;37.62
28701;BME280;15877;52.344;16.790;2023-05-22T11:16:24;100838.91;;;26.78;37.26
28701;BME280;15877;52.344;16.790;2023-05-22T11:19:03;100832.55;;;26.80;37.45
28701;BME280;15877;52.344;16.790;2023-05-22T11:21:58;100832.24;;;26.82;36.87
28701;BME280;15877;52.344;16.790;2023-05-22T11:24:35;100830.67;;;26.89;36.36
28701;BME280;15877;52.344;16.790;2023-05-22T11:27:09;100823.92;;;26.99;34.59
28701;BME280;15877;52.344;16.790;2023-05-22T11:29:43;100823.62;;;27.07;36.15
28701;BME280;15877;52.344;16.790;2023-05-22T11:32:16;100823.83;;;27.16;36.56
28701;BME280;15877;52.344;16.790;2023-05-22T11:34:49;100823.61;;;27.28;37.03
28701;BME280;15877;52.344;16.790;2023-05-22T11:37:21;100813.25;;;27.28;36.82
28701;BME280;15877;52.344;16.790;2023-05-22T11:39:56;100816.29;;;27.39;35.20
28701;BME280;15877;52.344;16.790;2023-05-22T11:42:29;100815.39;;;27.45;37.18
28701;BME280;15877;52.344;16.790;2023-05-22T11:45:02;100809.77;;;27.49;35.86
28701;BME280;15877;52.344;16.790;2023-05-22T11:47:35;100813.31;;;27.60;36.17
28701;BME280;15877;52.344;16.790;2023-05-22T11:50:11;100810.49;;;27.68;36.28
28701;BME280;15877;52.344;16.790;2023-05-22T11:52:47;100800.58;;;27.70;34.96
28701;BME280;15877;52.344;16.790;2023-05-22T11:55:21;100798.70;;;27.76;34.78
28701;BME280;15877;52.344;16.790;2023-05-22T11:57:55;100798.41;;;27.80;33.95
28701;BME280;15877;52.344;16.790;2023-05-22T12:00:27;100795.38;;;27.75;33.07
28701;BME280;15877;52.344;16.790;2023-05-22T12:03:01;100793.95;;;27.76;34.04
28701;BME280;15877;52.344;16.790;2023-05-22T12:05:34;100790.87;;;27.81;35.75
28701;BME280;15877;52.344;16.790;2023-05-22T12:08:06;100785.61;;;27.89;34.08
28701;BME280;15877;52.344;16.790;2023-05-22T12:10:38;100780.97;;;27.97;34.16
28701;BME280;15877;52.344;16.790;2023-05-22T12:13:22;100778.24;;;27.96;33.40
28701;BME280;15877;52.344;16.790;2023-05-22T12:15:58;100781.80;;;27.95;34.51
28701;BME280;15877;52.344;16.790;2023-05-22T12:18:36;100780.56;;;27.99;34.22
28701;BME280;15877;52.344;16.790;2023-05-22T12:21:10;100767.80;;;27.94;33.59
28701;BME280;15877;52.344;16.790;2023-05-22T12:23:50;100780.80;;;28.03;34.27
28701;BME280;15877;52.344;16.790;2023-05-22T12:26:22;100772.16;;;28.08;34.91
28701;BME280;15877;52.344;16.790;2023-05-22T12:28:54;100767.46;;;28.05;34.52
28701;BME280;15877;52.344;16.790;2023-05-22T12:31:29;100770.32;;;28.09;34.22
28701;BME280;15877;52.344;16.790;2023-05-22T12:34:07;100765.23;;;28.09;34.56
28701;BME280;15877;52.344;16.790;2023-05-22T12:36:41;100763.85;;;28.15;36.05
28701;BME280;15877;52.344;16.790;2023-05-22T12:39:14;100763.72;;;28.16;35.76
28701;BME280;15877;52.344;16.790;2023-05-22T12:41:47;100743.73;;;28.08;35.29
28701;BME280;15877;52.344;16.790;2023-05-22T12:44:19;100753.52;;;28.23;35.30
28701;BME280;15877;52.344;16.790;2023-05-22T12:46:52;100738.02;;;28.19;35.36
28701;BME280;15877;52.344;16.790;2023-05-22T12:49:24;100747.77;;;28.29;37.34
28701;BME280;15877;52.344;16.790;2023-05-22T12:51:57;100751.33;;;28.31;36.78
28701;BME280;15877;52.344;16.790;2023-05-22T12:54:29;100748.48;;;28.26;36.61
28701;BME280;15877;52.344;16.790;2023-05-22T12:57:02;100744.10;;;28.22;35.48
28701;BME280;15877;52.344;16.790;2023-05-22T12:59:34;100739.98;;;28.23;36.51
28701;BME280;15877;52.344;16.790;2023-05-22T13:02:07;100738.48;;;28.18;36.22
28701;BME280;15877;52.344;16.790;2023-05-22T13:04:40;100736.03;;;28.14;35.25
28701;BME280;15877;52.344;16.790;2023-05-22T13:07:13;100736.80;;;28.10;33.67
28701;BME280;15877;52.344;16.790;2023-05-22T13:09:45;100737.55;;;28.01;35.21
28701;BME280;15877;52.344;16.790;2023-05-22T13:12:17;100742.20;;;28.05;35.55
28701;BME280;15877;52.344;16.790;2023-05-22T13:14:50;100736.95;;;28.08;35.38
28701;BME280;15877;52.344;16.790;2023-05-22T13:17:22;100731.53;;;28.06;33.82
28701;BME280;15877;52.344;16.790;2023-05-22T13:19:56;100728.31;;;28.10;33.80
28701;BME280;15877;52.344;16.790;2023-05-22T13:22:28;100732.27;;;28.13;34.27